Time;durP1;ratioP1;P1;durP2;ratioP2;P2;SDS_P1;SDS_P2;PMS_P1;PMS_P2;Temp;Humidity;BMP_temperature;BMP_pressure;BME280_temperature;BME280_humidity;BME280_pressure;Samples;Min_cycle;Max_cycle;Signal;HPM_P1;HPM_P2
2022/11/19 00:01:13;;;;;;;3.38;1.10;;;;;;;;;;5010277;28;20025;-74
2022/11/19 00:03:40;;;;;;;2.22;1.00;;;;;;;;;;5010453;28;20549;-75
2022/11/19 00:06:08;;;;;;;2.30;0.80;;;;;;;;;;5009984;28;20129;-76
2022/11/19 00:08:34;;;;;;;2.08;0.77;;;;;;;;;;5010359;28;20048;-75
2022/11/19 00:11:10;;;;;;;3.60;1.00;;;;;;;;;;5009730;28;20482;-75
2022/11/19 00:13:38;;;;;;;2.05;0.80;;;;;;;;;;5009902;28;20021;-76
2022/11/19 00:16:09;;;;;;;2.03;0.75;;;;;;;;;;5009932;28;20113;-75
2022/11/19 00:18:34;;;;;;;1.90;1.00;;;;;;;;;;5010163;28;20029;-76
2022/11/19 00:21:09;;;;;;;1.85;0.80;;;;;;;;;;4992521;28;20026;-75
2022/11/19 00:23:35;;;;;;;2.15;0.60;;;;;;;;;;5010286;28;20080;-74
2022/11/19 00:26:12;;;;;;;1.48;0.75;;;;;;;;;;4992131;28;20026;-77
2022/11/19 00:28:38;;;;;;;2.42;0.70;;;;;;;;;;5009724;28;20093;-75
2022/11/19 00:31:06;;;;;;;2.38;0.73;;;;;;;;;;5009605;28;20026;-74
2022/11/19 00:33:32;;;;;;;1.70;0.60;;;;;;;;;;5017673;28;20022;-75
2022/11/19 00:35:58;;;;;;;1.92;0.60;;;;;;;;;;5018782;28;20026;-77
2022/11/19 00:38:24;;;;;;;2.10;0.75;;;;;;;;;;5015396;28;20033;-76
2022/11/19 00:40:50;;;;;;;2.72;0.70;;;;;;;;;;5011558;28;20030;-77
2022/11/19 00:46:01;;;;;;;3.08;0.70;;;;;;;;;;5002983;28;20080;-77
2022/11/19 00:48:26;;;;;;;1.13;0.60;;;;;;;;;;5014604;28;20030;-75
2022/11/19 00:50:52;;;;;;;1.77;0.50;;;;;;;;;;5013316;28;20034;-76
2022/11/19 00:53:17;;;;;;;1.35;0.70;;;;;;;;;;5012007;28;20061;-76
2022/11/19 00:55:43;;;;;;;1.25;0.47;;;;;;;;;;5012600;28;20022;-76
2022/11/19 00:58:08;;;;;;;1.73;0.80;;;;;;;;;;5012948;28;20041;-75
2022/11/19 01:00:34;;;;;;;1.10;0.60;;;;;;;;;;5011369;28;20030;-77
2022/11/19 01:02:59;;;;;;;1.00;0.52;;;;;;;;;;5009688;28;20437;-74
2022/11/19 01:05:25;;;;;;;1.38;0.45;;;;;;;;;;5011830;28;20042;-74
2022/11/19 01:07:52;;;;;;;1.52;0.60;;;;;;;;;;5012683;28;20045;-75
2022/11/19 01:10:18;;;;;;;1.38;0.57;;;;;;;;;;5012714;28;20026;-76
2022/11/19 01:15:28;;;;;;;3.00;0.45;;;;;;;;;;5012630;28;20033;-76
2022/11/19 01:17:53;;;;;;;1.15;0.50;;;;;;;;;;5013675;28;20030;-74
2022/11/19 01:20:19;;;;;;;1.00;0.43;;;;;;;;;;4994894;28;20059;-76
2022/11/19 01:22:45;;;;;;;1.08;0.45;;;;;;;;;;5011532;28;20037;-76
2022/11/19 01:25:11;;;;;;;1.98;0.50;;;;;;;;;;5013055;28;20065;-77
2022/11/19 01:27:37;;;;;;;1.33;0.50;;;;;;;;;;4994828;28;20108;-76
2022/11/19 01:30:04;;;;;;;1.75;0.40;;;;;;;;;;5012950;28;20064;-76
2022/11/19 01:32:29;;;;;;;1.95;0.40;;;;;;;;;;5012276;28;20022;-76
2022/11/19 01:34:55;;;;;;;0.93;0.50;;;;;;;;;;5013274;28;20114;-75
2022/11/19 01:37:20;;;;;;;3.20;0.60;;;;;;;;;;5010640;28;20029;-76
2022/11/19 01:39:46;;;;;;;1.60;0.52;;;;;;;;;;5014857;28;20026;-76
2022/11/19 01:42:48;;;;;;;1.27;0.60;;;;;;;;;;5015563;28;20401;-77
2022/11/19 01:45:40;;;;;;;0.77;0.40;;;;;;;;;;5015307;28;20378;-76
2022/11/19 01:48:09;;;;;;;0.80;0.60;;;;;;;;;;5014311;28;20049;-73
2022/11/19 01:50:40;;;;;;;0.68;0.40;;;;;;;;;;5015473;28;20044;-74
2022/11/19 01:53:08;;;;;;;1.42;0.50;;;;;;;;;;5014702;28;20041;-76
2022/11/19 01:55:34;;;;;;;0.50;0.30;;;;;;;;;;5013106;28;20022;-75
2022/11/19 01:58:02;;;;;;;1.00;0.57;;;;;;;;;;4995842;28;20034;-73
2022/11/19 02:00:28;;;;;;;0.82;0.50;;;;;;;;;;5014905;28;20037;-75
2022/11/19 02:02:54;;;;;;;2.53;0.60;;;;;;;;;;5015075;28;20037;-73
2022/11/19 02:05:20;;;;;;;0.80;0.40;;;;;;;;;;5014585;28;20542;-75
2022/11/19 02:07:54;;;;;;;2.83;0.50;;;;;;;;;;5013740;28;20022;-74
2022/11/19 02:10:27;;;;;;;0.82;0.40;;;;;;;;;;5014374;28;20036;-74
2022/11/19 02:13:02;;;;;;;1.25;0.47;;;;;;;;;;5014927;28;20033;-74
2022/11/19 02:15:40;;;;;;;0.95;0.40;;;;;;;;;;5015327;28;20494;-74
2022/11/19 02:18:27;;;;;;;1.20;0.50;;;;;;;;;;5013067;28;20034;-74
2022/11/19 02:21:31;;;;;;;1.95;0.40;;;;;;;;;;5014259;28;20517;-75
2022/11/19 02:24:10;;;;;;;3.03;0.43;;;;;;;;;;4999609;28;20069;-75
2022/11/19 02:26:58;;;;;;;0.82;0.30;;;;;;;;;;5015067;28;20033;-73
2022/11/19 02:29:29;;;;;;;0.50;0.38;;;;;;;;;;5012151;28;20030;-73
2022/11/19 02:32:03;;;;;;;0.38;0.25;;;;;;;;;;5011733;28;20037;-73
2022/11/19 02:34:39;;;;;;;0.52;0.30;;;;;;;;;;5011945;28;20029;-75
2022/11/19 02:37:15;;;;;;;0.47;0.32;;;;;;;;;;5012046;28;20026;-74
2022/11/19 02:39:55;;;;;;;0.55;0.30;;;;;;;;;;5011770;28;20084;-75
2022/11/19 02:42:27;;;;;;;1.75;0.40;;;;;;;;;;5011223;28;20389;-75
2022/11/19 02:45:07;;;;;;;0.88;0.30;;;;;;;;;;5011922;28;20080;-74
2022/11/19 02:47:39;;;;;;;0.82;0.50;;;;;;;;;;5011729;28;20021;-74
2022/11/19 02:50:15;;;;;;;0.75;0.40;;;;;;;;;;5011287;28;20113;-74
2022/11/19 02:52:42;;;;;;;1.00;0.30;;;;;;;;;;5011213;28;20028;-75
2022/11/19 02:55:12;;;;;;;0.75;0.40;;;;;;;;;;5011847;28;20030;-74
2022/11/19 02:57:40;;;;;;;1.07;0.40;;;;;;;;;;5011027;28;20418;-75
2022/11/19 03:05:50;;;;;;;0.60;0.30;;;;;;;;;;5011937;28;20096;-74
2022/11/19 03:08:16;;;;;;;0.30;0.30;;;;;;;;;;5011241;28;20026;-75
2022/11/19 03:11:14;;;;;;;0.40;0.30;;;;;;;;;;5011174;28;20022;-74
2022/11/19 03:17:16;;;;;;;0.40;0.30;;;;;;;;;;5011563;28;20095;-74
2022/11/19 03:19:55;;;;;;;0.40;0.22;;;;;;;;;;5011137;28;20105;-73
2022/11/19 03:22:26;;;;;;;1.40;0.30;;;;;;;;;;5011273;28;20030;-72
2022/11/19 03:25:02;;;;;;;;;;;;;;;;;;5011470;28;20397;-72
2022/11/19 03:27:40;;;;;;;0.85;0.25;;;;;;;;;;5010733;28;19913;-74
2022/11/19 03:30:07;;;;;;;0.10;0.10;;;;;;;;;;5010739;28;20045;-74
2022/11/19 03:33:03;;;;;;;1.33;0.32;;;;;;;;;;4993162;28;20029;-73
2022/11/19 03:35:34;;;;;;;0.65;0.30;;;;;;;;;;5008181;28;20083;-74
2022/11/19 03:38:02;;;;;;;;;;;;;;;;;;5011356;28;20117;-72
2022/11/19 03:40:31;;;;;;;0.20;0.20;;;;;;;;;;5010805;28;19963;-74
2022/11/19 03:43:00;;;;;;;0.10;0.10;;;;;;;;;;5010315;28;20084;-75
2022/11/19 03:45:30;;;;;;;0.90;0.22;;;;;;;;;;5010575;28;20042;-74
2022/11/19 03:47:57;;;;;;;0.98;0.22;;;;;;;;;;5010421;28;20030;-74
2022/11/19 03:50:29;;;;;;;0.35;0.22;;;;;;;;;;5010364;28;20042;-74
2022/11/19 03:52:56;;;;;;;0.82;0.32;;;;;;;;;;4992751;28;20799;-74
2022/11/19 03:55:38;;;;;;;0.32;0.30;;;;;;;;;;5010453;28;20026;-73
2022/11/19 03:58:05;;;;;;;0.10;0.10;;;;;;;;;;4992572;28;20038;-74
2022/11/19 04:00:31;;;;;;;0.10;0.10;;;;;;;;;;5010419;28;20077;-73
2022/11/19 04:02:57;;;;;;;1.23;0.20;;;;;;;;;;5009624;28;20458;-74
2022/11/19 04:05:22;;;;;;;2.08;0.10;;;;;;;;;;5010077;28;20414;-77
2022/11/19 04:07:48;;;;;;;0.77;0.20;;;;;;;;;;5010233;28;20540;-76
2022/11/19 04:10:13;;;;;;;0.10;0.10;;;;;;;;;;5010097;28;20375;-76
2022/11/19 04:12:39;;;;;;;1.02;0.30;;;;;;;;;;5009810;28;20489;-77
2022/11/19 04:15:05;;;;;;;0.80;0.22;;;;;;;;;;5010033;28;20438;-76
2022/11/19 04:17:30;;;;;;;1.23;0.10;;;;;;;;;;5010298;28;20107;-77
2022/11/19 04:19:55;;;;;;;0.20;0.10;;;;;;;;;;5010038;28;20036;-76
2022/11/19 04:22:21;;;;;;;0.15;0.10;;;;;;;;;;5010107;28;20030;-76
2022/11/19 04:24:46;;;;;;;0.25;0.10;;;;;;;;;;5009855;28;20026;-76
2022/11/19 04:27:12;;;;;;;0.43;0.20;;;;;;;;;;5009555;28;20037;-76
2022/11/19 04:29:37;;;;;;;3.17;0.20;;;;;;;;;;5009471;28;20036;-76
2022/11/19 04:32:03;;;;;;;0.52;0.30;;;;;;;;;;5009864;28;20172;-74
2022/11/19 04:34:28;;;;;;;0.30;0.20;;;;;;;;;;5009831;28;20441;-73
2022/11/19 04:36:54;;;;;;;0.15;0.10;;;;;;;;;;5010111;28;20026;-73
2022/11/19 04:39:19;;;;;;;0.22;0.20;;;;;;;;;;5009741;28;20324;-74
2022/11/19 04:41:45;;;;;;;1.08;0.30;;;;;;;;;;5009569;28;20029;-75
2022/11/19 04:44:10;;;;;;;1.55;0.30;;;;;;;;;;5009359;28;20029;-74
2022/11/19 04:46:35;;;;;;;0.47;0.30;;;;;;;;;;5009557;28;20026;-74
2022/11/19 04:49:01;;;;;;;0.98;0.20;;;;;;;;;;5009395;28;20508;-74
2022/11/19 04:51:26;;;;;;;0.55;0.25;;;;;;;;;;5009742;28;20487;-75
2022/11/19 04:53:53;;;;;;;1.70;0.70;;;;;;;;;;5009595;28;20022;-74
2022/11/19 04:56:18;;;;;;;4.22;0.30;;;;;;;;;;5010125;28;20048;-74
2022/11/19 04:58:44;;;;;;;0.60;0.22;;;;;;;;;;4991663;28;20487;-73
2022/11/19 05:01:09;;;;;;;0.85;0.10;;;;;;;;;;5009597;28;20029;-74
2022/11/19 05:03:35;;;;;;;1.67;0.28;;;;;;;;;;5009799;28;20632;-74
2022/11/19 05:06:00;;;;;;;0.52;0.38;;;;;;;;;;5009185;28;20042;-75
2022/11/19 05:08:26;;;;;;;1.38;0.25;;;;;;;;;;5009862;28;20030;-75
2022/11/19 05:10:51;;;;;;;0.90;0.20;;;;;;;;;;5009400;28;20029;-74
2022/11/19 05:13:17;;;;;;;0.60;0.20;;;;;;;;;;5010794;28;20030;-75
2022/11/19 05:15:43;;;;;;;0.80;0.30;;;;;;;;;;4995689;28;20030;-73
2022/11/19 05:18:08;;;;;;;0.68;0.30;;;;;;;;;;5013790;28;20064;-74
2022/11/19 05:20:33;;;;;;;0.17;0.17;;;;;;;;;;5013216;28;20057;-74
2022/11/19 05:22:59;;;;;;;4.20;0.32;;;;;;;;;;5013200;28;20087;-74
2022/11/19 05:25:24;;;;;;;0.60;0.20;;;;;;;;;;5013116;28;20083;-74
2022/11/19 05:27:50;;;;;;;2.10;0.40;;;;;;;;;;5012919;28;20516;-76
2022/11/19 05:30:16;;;;;;;0.80;0.22;;;;;;;;;;5012742;28;20109;-77
2022/11/19 05:32:41;;;;;;;0.75;0.30;;;;;;;;;;5013214;28;20087;-73
2022/11/19 05:35:07;;;;;;;0.32;0.20;;;;;;;;;;5013104;28;20025;-74
2022/11/19 05:37:33;;;;;;;1.75;0.30;;;;;;;;;;5013252;28;20497;-74
2022/11/19 05:39:58;;;;;;;0.95;0.30;;;;;;;;;;5012922;28;20029;-75
2022/11/19 05:42:23;;;;;;;0.93;0.40;;;;;;;;;;5012608;28;20026;-75
2022/11/19 05:44:49;;;;;;;1.17;0.30;;;;;;;;;;5012659;28;20022;-75
2022/11/19 05:47:15;;;;;;;1.65;0.30;;;;;;;;;;5013016;28;20030;-75
2022/11/19 05:49:41;;;;;;;1.08;0.32;;;;;;;;;;5012676;28;20498;-76
2022/11/19 05:52:06;;;;;;;1.75;0.30;;;;;;;;;;5012548;28;20107;-76
2022/11/19 05:54:31;;;;;;;0.40;0.20;;;;;;;;;;5012639;28;20117;-74
2022/11/19 05:56:57;;;;;;;0.90;0.30;;;;;;;;;;5012823;28;20022;-74
2022/11/19 05:59:22;;;;;;;2.40;0.40;;;;;;;;;;5012395;28;20036;-74
2022/11/19 06:01:48;;;;;;;3.10;0.90;;;;;;;;;;5012400;28;20030;-72
2022/11/19 06:04:13;;;;;;;2.05;0.50;;;;;;;;;;5012581;28;20105;-78
2022/11/19 06:06:39;;;;;;;1.10;0.30;;;;;;;;;;5012114;28;20126;-76
2022/11/19 06:09:04;;;;;;;1.17;0.50;;;;;;;;;;5012440;28;20018;-75
2022/11/19 06:14:21;;;;;;;3.05;0.40;;;;;;;;;;5012119;28;20037;-76
2022/11/19 06:16:54;;;;;;;1.25;0.40;;;;;;;;;;5012285;28;20030;-76
2022/11/19 06:19:20;;;;;;;0.40;0.25;;;;;;;;;;5012615;28;20069;-75
2022/11/19 06:21:47;;;;;;;1.23;0.40;;;;;;;;;;5012170;28;20103;-76
2022/11/19 06:24:13;;;;;;;0.57;0.25;;;;;;;;;;5011507;28;20081;-77
2022/11/19 06:26:39;;;;;;;2.08;0.40;;;;;;;;;;5011675;28;20478;-77
2022/11/19 06:29:05;;;;;;;1.08;0.47;;;;;;;;;;5011749;28;20065;-77
2022/11/19 06:31:31;;;;;;;2.05;0.45;;;;;;;;;;5011834;28;20061;-77
2022/11/19 06:33:56;;;;;;;1.67;0.70;;;;;;;;;;5011977;28;20026;-76
2022/11/19 06:36:22;;;;;;;2.60;0.40;;;;;;;;;;5011902;28;20544;-74
2022/11/19 06:38:48;;;;;;;2.33;0.70;;;;;;;;;;5012190;28;20386;-74
2022/11/19 06:41:13;;;;;;;2.85;0.47;;;;;;;;;;5011935;28;20410;-76
2022/11/19 06:43:39;;;;;;;0.90;0.40;;;;;;;;;;5011477;28;20030;-74
2022/11/19 06:46:04;;;;;;;0.50;0.30;;;;;;;;;;5011541;28;20029;-77
2022/11/19 06:48:30;;;;;;;1.45;0.40;;;;;;;;;;5011828;28;20033;-77
2022/11/19 06:50:56;;;;;;;1.52;0.50;;;;;;;;;;5011414;28;20476;-77
2022/11/19 06:53:22;;;;;;;0.63;0.40;;;;;;;;;;5011710;28;20044;-76
2022/11/19 06:55:47;;;;;;;1.48;0.47;;;;;;;;;;5011818;28;20105;-75
2022/11/19 06:58:16;;;;;;;1.40;0.50;;;;;;;;;;5011580;28;20026;-77
2022/11/19 07:00:41;;;;;;;1.10;0.50;;;;;;;;;;5011517;28;20029;-78
2022/11/19 07:03:07;;;;;;;2.45;0.60;;;;;;;;;;4993894;28;20026;-77
2022/11/19 07:05:32;;;;;;;5.03;0.70;;;;;;;;;;5011158;28;20064;-77
2022/11/19 07:07:58;;;;;;;2.85;0.90;;;;;;;;;;5011362;28;20484;-74
2022/11/19 07:10:23;;;;;;;2.92;0.70;;;;;;;;;;5011174;28;20648;-73
2022/11/19 07:12:48;;;;;;;2.20;0.57;;;;;;;;;;5010788;28;20072;-74
2022/11/19 07:15:14;;;;;;;1.42;0.50;;;;;;;;;;5011299;28;20080;-75
2022/11/19 07:17:41;;;;;;;2.15;0.50;;;;;;;;;;5011210;28;20083;-74
2022/11/19 07:20:07;;;;;;;1.25;0.50;;;;;;;;;;5011458;28;20508;-74
2022/11/19 07:22:32;;;;;;;3.05;1.00;;;;;;;;;;5010812;28;20061;-74
2022/11/19 07:24:58;;;;;;;1.98;0.88;;;;;;;;;;5011033;28;20061;-75
2022/11/19 07:27:23;;;;;;;1.52;0.77;;;;;;;;;;5010509;28;20117;-74
2022/11/19 07:29:48;;;;;;;1.40;0.50;;;;;;;;;;5010952;28;20470;-74
2022/11/19 07:32:14;;;;;;;1.95;0.80;;;;;;;;;;4993063;28;20527;-75
2022/11/19 07:34:39;;;;;;;1.55;0.80;;;;;;;;;;5010829;28;20033;-73
2022/11/19 07:37:05;;;;;;;1.23;0.50;;;;;;;;;;5010048;28;20029;-73
2022/11/19 07:39:30;;;;;;;2.08;0.80;;;;;;;;;;5011225;28;20026;-73
2022/11/19 07:44:40;;;;;;;1.75;0.90;;;;;;;;;;5010780;28;20032;-74
2022/11/19 07:47:07;;;;;;;4.43;0.80;;;;;;;;;;5010535;28;20025;-77
2022/11/19 07:49:32;;;;;;;3.90;0.80;;;;;;;;;;5010754;28;20030;-74
2022/11/19 07:51:57;;;;;;;2.13;0.60;;;;;;;;;;5011824;28;20029;-74
2022/11/19 07:54:23;;;;;;;3.30;0.70;;;;;;;;;;5010685;28;20029;-72
2022/11/19 07:56:55;;;;;;;2.53;0.82;;;;;;;;;;5087060;27;20386;-74
2022/11/19 07:59:20;;;;;;;2.22;1.17;;;;;;;;;;5086863;28;20161;-74
2022/11/19 08:01:46;;;;;;;2.33;0.90;;;;;;;;;;5086702;28;20020;-73
2022/11/19 08:04:11;;;;;;;2.17;0.98;;;;;;;;;;5086813;28;20104;-75
2022/11/19 08:06:37;;;;;;;2.33;0.88;;;;;;;;;;5086579;28;20027;-74
2022/11/19 08:09:04;;;;;;;2.03;1.10;;;;;;;;;;5086718;28;20063;-72
2022/11/19 08:11:29;;;;;;;1.85;1.00;;;;;;;;;;5086669;28;20024;-72
2022/11/19 08:13:56;;;;;;;2.90;0.88;;;;;;;;;;5086117;28;20078;-76
2022/11/19 08:19:09;;;;;;;4.00;1.10;;;;;;;;;;5086594;28;20035;-77
2022/11/19 08:21:35;;;;;;;4.72;1.73;;;;;;;;;;5086291;28;20415;-76
2022/11/19 08:24:02;;;;;;;3.63;1.40;;;;;;;;;;5086339;28;20035;-75
2022/11/19 08:26:28;;;;;;;4.80;2.03;;;;;;;;;;5086306;28;20101;-75
2022/11/19 08:28:53;;;;;;;4.60;1.48;;;;;;;;;;5086067;28;20028;-75
2022/11/19 08:31:19;;;;;;;4.55;1.50;;;;;;;;;;5086237;28;20036;-75
2022/11/19 08:33:44;;;;;;;4.82;1.40;;;;;;;;;;5086460;28;20031;-75
2022/11/19 08:36:10;;;;;;;3.88;1.40;;;;;;;;;;5086063;28;20353;-74
2022/11/19 08:38:36;;;;;;;3.28;1.10;;;;;;;;;;5085852;28;20437;-76
2022/11/19 08:43:45;;;;;;;7.32;0.68;;;;;;;;;;5085770;28;20038;-76
2022/11/19 08:46:11;;;;;;;1.90;0.70;;;;;;;;;;5086006;28;20028;-75
2022/11/19 08:48:36;;;;;;;2.03;1.00;;;;;;;;;;5085690;28;20024;-74
2022/11/19 08:51:06;;;;;;;2.72;0.70;;;;;;;;;;5086312;28;20033;-75
2022/11/19 08:53:32;;;;;;;1.67;0.80;;;;;;;;;;5085610;28;20660;-74
2022/11/19 08:55:58;;;;;;;3.08;1.38;;;;;;;;;;5085664;28;20442;-74
2022/11/19 08:58:24;;;;;;;3.45;1.20;;;;;;;;;;5085500;28;20030;-73
2022/11/19 09:00:50;;;;;;;2.88;1.15;;;;;;;;;;5085632;28;20028;-76
2022/11/19 09:03:16;;;;;;;4.30;1.40;;;;;;;;;;5085141;28;20034;-76
2022/11/19 09:05:41;;;;;;;2.03;1.05;;;;;;;;;;5118358;27;20024;-76
2022/11/19 09:08:06;;;;;;;2.00;1.00;;;;;;;;;;5072846;28;20392;-75
2022/11/19 09:10:33;;;;;;;1.98;1.10;;;;;;;;;;5072085;28;20055;-76
2022/11/19 09:13:01;;;;;;;1.83;1.10;;;;;;;;;;5070268;28;20466;-74
2022/11/19 09:15:26;;;;;;;2.22;1.05;;;;;;;;;;5072178;28;20131;-76
2022/11/19 09:17:52;;;;;;;3.78;0.80;;;;;;;;;;5071866;28;20287;-76
2022/11/19 09:20:17;;;;;;;2.72;0.82;;;;;;;;;;5072032;28;20036;-76
2022/11/19 09:22:43;;;;;;;1.33;0.70;;;;;;;;;;5071737;28;20614;-78
2022/11/19 09:25:09;;;;;;;1.23;0.70;;;;;;;;;;5071736;28;20046;-75
2022/11/19 09:27:35;;;;;;;1.67;0.70;;;;;;;;;;5069980;28;20032;-76
2022/11/19 09:30:01;;;;;;;1.30;0.65;;;;;;;;;;5071820;28;20029;-75
2022/11/19 09:32:30;;;;;;;1.05;0.60;;;;;;;;;;5071830;28;20442;-74
2022/11/19 09:34:55;;;;;;;1.33;0.60;;;;;;;;;;5071613;28;20025;-76
2022/11/19 09:37:21;;;;;;;1.38;0.63;;;;;;;;;;5071684;28;20103;-76
2022/11/19 09:39:46;;;;;;;1.52;0.70;;;;;;;;;;5071709;28;20107;-75
2022/11/19 09:42:27;;;;;;;1.48;0.80;;;;;;;;;;5070986;28;20040;-76
2022/11/19 09:45:02;;;;;;;1.85;0.70;;;;;;;;;;5071264;28;20548;-73
2022/11/19 09:47:43;;;;;;;2.67;0.70;;;;;;;;;;5071317;28;20024;-75
2022/11/19 09:50:19;;;;;;;0.80;0.60;;;;;;;;;;5071400;28;20395;-76
2022/11/19 09:52:55;;;;;;;2.00;0.80;;;;;;;;;;5071432;28;20609;-76
2022/11/19 09:55:33;;;;;;;1.40;0.90;;;;;;;;;;5071143;28;20068;-76
2022/11/19 09:58:00;;;;;;;1.60;0.90;;;;;;;;;;5070903;28;20047;-74
2022/11/19 10:00:29;;;;;;;1.95;0.90;;;;;;;;;;5071337;28;20028;-75
2022/11/19 10:02:56;;;;;;;3.17;1.00;;;;;;;;;;5070777;28;20025;-75
2022/11/19 10:05:30;;;;;;;1.42;0.77;;;;;;;;;;5070990;28;20039;-76
2022/11/19 10:08:21;;;;;;;2.72;1.00;;;;;;;;;;5070759;28;20028;-74
2022/11/19 10:11:06;;;;;;;3.00;0.95;;;;;;;;;;5071144;28;20090;-75
2022/11/19 10:14:12;;;;;;;2.40;0.80;;;;;;;;;;5070136;28;20016;-75
2022/11/19 10:16:53;;;;;;;1.88;0.93;;;;;;;;;;5069652;28;20082;-75
2022/11/19 10:19:47;;;;;;;1.60;0.82;;;;;;;;;;5069680;28;20059;-75
2022/11/19 10:22:23;;;;;;;3.95;0.90;;;;;;;;;;5070692;28;20085;-74
2022/11/19 10:25:04;;;;;;;1.60;0.90;;;;;;;;;;5070461;28;20035;-76
2022/11/19 10:27:39;;;;;;;1.85;0.80;;;;;;;;;;5070140;28;20028;-77
2022/11/19 10:30:15;;;;;;;2.85;0.80;;;;;;;;;;5069322;28;20059;-77
2022/11/19 10:32:46;;;;;;;1.45;0.80;;;;;;;;;;5070463;28;20020;-74
2022/11/19 10:35:20;;;;;;;2.28;0.90;;;;;;;;;;5070441;28;20103;-74
2022/11/19 10:38:16;;;;;;;1.42;0.82;;;;;;;;;;5070308;28;20063;-75
2022/11/19 10:40:47;;;;;;;3.65;0.88;;;;;;;;;;5070317;28;20389;-76
2022/11/19 10:43:22;;;;;;;2.80;1.00;;;;;;;;;;5069714;28;20044;-74
2022/11/19 10:45:48;;;;;;;4.35;0.75;;;;;;;;;;5070066;28;20542;-74
2022/11/19 10:48:16;;;;;;;1.58;0.60;;;;;;;;;;5069846;28;20050;-74
2022/11/19 10:50:41;;;;;;;2.38;0.80;;;;;;;;;;5070449;28;20016;-74
2022/11/19 10:53:22;;;;;;;1.48;0.55;;;;;;;;;;5070053;28;20094;-73
2022/11/19 10:55:50;;;;;;;2.15;0.60;;;;;;;;;;5069726;28;20044;-73
2022/11/19 10:58:31;;;;;;;0.93;0.40;;;;;;;;;;5069701;28;20048;-74
2022/11/19 11:00:59;;;;;;;1.27;0.73;;;;;;;;;;5070097;28;20025;-73
2022/11/19 11:03:35;;;;;;;1.60;0.77;;;;;;;;;;5069717;28;20021;-74
2022/11/19 11:06:06;;;;;;;1.35;0.60;;;;;;;;;;5069829;28;20027;-73
2022/11/19 11:08:32;;;;;;;1.92;0.93;;;;;;;;;;5069364;28;20028;-74
2022/11/19 11:10:58;;;;;;;1.88;0.57;;;;;;;;;;5069688;28;20029;-75
2022/11/19 11:16:21;;;;;;;1.38;0.57;;;;;;;;;;5069863;28;20044;-76
2022/11/19 11:18:48;;;;;;;2.13;0.57;;;;;;;;;;5069510;28;20032;-75
2022/11/19 11:21:37;;;;;;;2.45;1.00;;;;;;;;;;5069569;28;20063;-75
2022/11/19 11:24:03;;;;;;;2.58;1.13;;;;;;;;;;5067771;28;20027;-76
2022/11/19 11:26:32;;;;;;;2.20;0.90;;;;;;;;;;5068105;28;20056;-74
2022/11/19 11:28:58;;;;;;;1.85;0.90;;;;;;;;;;5069055;28;20021;-75
2022/11/19 11:31:43;;;;;;;2.28;1.10;;;;;;;;;;5069226;28;20117;-74
2022/11/19 11:34:31;;;;;;;2.60;0.77;;;;;;;;;;5069357;28;20086;-73
2022/11/19 11:36:58;;;;;;;1.75;0.70;;;;;;;;;;5069498;28;20040;-73
2022/11/19 11:39:30;;;;;;;2.58;0.98;;;;;;;;;;5068112;28;20059;-74
2022/11/19 11:41:57;;;;;;;1.95;0.75;;;;;;;;;;5069106;28;20029;-72
2022/11/19 11:44:26;;;;;;;2.22;1.02;;;;;;;;;;5069378;28;20078;-72
2022/11/19 11:46:52;;;;;;;2.60;1.10;;;;;;;;;;5069355;28;20039;-72
2022/11/19 11:49:35;;;;;;;2.90;0.90;;;;;;;;;;5069196;28;20039;-73
2022/11/19 11:52:10;;;;;;;2.22;0.90;;;;;;;;;;5069730;28;20013;-72
2022/11/19 11:54:37;;;;;;;4.40;1.30;;;;;;;;;;5068743;28;20028;-73
2022/11/19 11:57:15;;;;;;;2.35;0.90;;;;;;;;;;5069045;28;20032;-73
2022/11/19 11:59:40;;;;;;;3.45;0.90;;;;;;;;;;5069183;28;20029;-72
2022/11/19 12:02:17;;;;;;;3.47;1.00;;;;;;;;;;5069082;28;20035;-73
2022/11/19 12:04:42;;;;;;;1.73;0.77;;;;;;;;;;5068858;28;20060;-73
2022/11/19 12:07:45;;;;;;;3.75;1.00;;;;;;;;;;5069176;28;20048;-73
2022/11/19 12:10:49;;;;;;;2.28;1.00;;;;;;;;;;5069155;28;20036;-74
2022/11/19 12:13:26;;;;;;;3.17;1.10;;;;;;;;;;5069009;28;20392;-72
2022/11/19 12:16:23;;;;;;;2.95;0.90;;;;;;;;;;5068678;28;20618;-72
2022/11/19 12:19:21;;;;;;;6.05;0.88;;;;;;;;;;5067577;28;20035;-72
2022/11/19 12:21:55;;;;;;;1.65;1.00;;;;;;;;;;5069108;28;20046;-76
2022/11/19 12:24:26;;;;;;;2.05;0.90;;;;;;;;;;5068584;28;20047;-76
2022/11/19 12:27:09;;;;;;;3.00;1.10;;;;;;;;;;5069071;28;20401;-76
2022/11/19 12:29:44;;;;;;;3.22;0.93;;;;;;;;;;5068873;28;20537;-77
2022/11/19 12:32:18;;;;;;;2.80;0.80;;;;;;;;;;5069105;28;20037;-77
2022/11/19 12:35:07;;;;;;;1.65;0.80;;;;;;;;;;5068735;28;20112;-78
2022/11/19 12:37:38;;;;;;;2.78;0.85;;;;;;;;;;5068977;28;20070;-76
2022/11/19 12:41:02;;;;;;;1.75;1.02;;;;;;;;;;5067460;28;20075;-76
2022/11/19 12:43:48;;;;;;;4.15;1.23;;;;;;;;;;4989764;28;20121;-74
2022/11/19 12:46:16;;;;;;;3.67;1.00;;;;;;;;;;4990369;28;20104;-74
2022/11/19 12:49:13;;;;;;;3.03;1.02;;;;;;;;;;5041250;28;20514;-73
2022/11/19 12:52:06;;;;;;;1.90;0.90;;;;;;;;;;5072725;28;20082;-74
2022/11/19 12:54:40;;;;;;;2.78;1.15;;;;;;;;;;5071928;28;20521;-74
2022/11/19 12:57:11;;;;;;;3.58;1.15;;;;;;;;;;5072214;28;20051;-77
2022/11/19 13:00:11;;;;;;;3.03;1.10;;;;;;;;;;5072035;28;20111;-74
2022/11/19 13:02:54;;;;;;;2.38;1.00;;;;;;;;;;5070905;28;20029;-73
2022/11/19 13:05:31;;;;;;;3.30;1.10;;;;;;;;;;5071746;28;20109;-74
2022/11/19 13:08:21;;;;;;;4.03;1.30;;;;;;;;;;5072310;28;20039;-73
2022/11/19 13:11:36;;;;;;;2.33;1.00;;;;;;;;;;5072161;28;20028;-73
2022/11/19 13:14:11;;;;;;;3.00;1.27;;;;;;;;;;5052236;28;20048;-74
2022/11/19 13:16:36;;;;;;;3.97;1.13;;;;;;;;;;5071732;28;20051;-75
2022/11/19 13:19:22;;;;;;;2.95;1.00;;;;;;;;;;5071869;28;20391;-76
2022/11/19 13:22:01;;;;;;;4.55;1.48;;;;;;;;;;5071939;28;20067;-75
2022/11/19 13:24:41;;;;;;;5.25;1.40;;;;;;;;;;5071631;28;20098;-76
2022/11/19 13:27:13;;;;;;;5.65;1.27;;;;;;;;;;5071721;28;20036;-76
2022/11/19 13:29:49;;;;;;;2.92;1.10;;;;;;;;;;5071665;28;20023;-75
2022/11/19 13:32:17;;;;;;;2.75;1.10;;;;;;;;;;5071940;28;20025;-75
2022/11/19 13:34:57;;;;;;;4.30;1.30;;;;;;;;;;5071374;28;20512;-76
2022/11/19 13:37:41;;;;;;;2.85;1.10;;;;;;;;;;5071759;28;20025;-74
2022/11/19 13:40:26;;;;;;;3.95;1.10;;;;;;;;;;5071441;28;20031;-75
2022/11/19 13:45:38;;;;;;;3.80;1.25;;;;;;;;;;5071258;28;20048;-73
2022/11/19 13:48:18;;;;;;;4.18;1.20;;;;;;;;;;5071757;28;20020;-73
2022/11/19 13:50:47;;;;;;;4.43;1.10;;;;;;;;;;5071467;28;20017;-74
2022/11/19 13:53:21;;;;;;;3.60;1.20;;;;;;;;;;5071611;28;20531;-74
2022/11/19 13:55:47;;;;;;;4.55;1.40;;;;;;;;;;5070888;28;20051;-72
2022/11/19 13:58:12;;;;;;;3.60;1.20;;;;;;;;;;5071045;28;20016;-75
2022/11/19 14:00:41;;;;;;;4.97;1.10;;;;;;;;;;5071038;28;20021;-77
2022/11/19 14:03:07;;;;;;;2.00;1.10;;;;;;;;;;5071061;28;20016;-77
2022/11/19 14:05:54;;;;;;;4.43;1.00;;;;;;;;;;5070717;28;20186;-77
2022/11/19 14:08:49;;;;;;;3.97;1.20;;;;;;;;;;5069869;28;20036;-77
2022/11/19 14:11:17;;;;;;;3.05;1.10;;;;;;;;;;5071046;28;20028;-77
2022/11/19 14:26:18;;;;;;;4.57;1.10;;;;;;;;;;5070625;28;20035;-76
2022/11/19 14:26:41;;;;;;;5.43;1.40;;;;;;;;;;5070651;28;20491;-76
2022/11/19 14:29:19;;;;;;;3.70;1.40;;;;;;;;;;5070558;28;20021;-77
2022/11/19 14:31:59;;;;;;;4.95;1.65;;;;;;;;;;5070530;28;20020;-76
2022/11/19 14:34:27;;;;;;;4.60;1.50;;;;;;;;;;5070758;28;20392;-76
2022/11/19 14:36:56;;;;;;;3.72;1.50;;;;;;;;;;5069969;28;20591;-77
2022/11/19 14:39:28;;;;;;;5.65;1.60;;;;;;;;;;5070448;28;20060;-76
2022/11/19 14:42:29;;;;;;;4.68;1.30;;;;;;;;;;5068246;28;20540;-77
2022/11/19 14:45:01;;;;;;;;;;;;;;;;;;5048079;28;20039;-77
2022/11/19 14:47:30;;;;;;;4.30;1.30;;;;;;;;;;5066310;28;19994;-76
2022/11/19 14:49:58;;;;;;;4.90;1.30;;;;;;;;;;5070231;28;20020;-75
2022/11/19 14:52:30;;;;;;;2.75;1.00;;;;;;;;;;5069978;28;20082;-76
2022/11/19 14:54:59;;;;;;;3.78;1.15;;;;;;;;;;5070189;28;20048;-73
2022/11/19 14:57:32;;;;;;;3.47;1.15;;;;;;;;;;5069478;28;20108;-76
2022/11/19 15:00:02;;;;;;;3.72;1.40;;;;;;;;;;5069932;28;20017;-76
2022/11/19 15:02:39;;;;;;;6.57;1.60;;;;;;;;;;5069657;28;20031;-75
2022/11/19 15:05:12;;;;;;;3.92;1.27;;;;;;;;;;5069541;28;20029;-76
2022/11/19 15:08:17;;;;;;;3.38;1.33;;;;;;;;;;5069627;28;20020;-75
2022/11/19 15:11:03;;;;;;;2.95;1.30;;;;;;;;;;5061662;28;20134;-76
2022/11/19 15:13:41;;;;;;;2.67;1.20;;;;;;;;;;5069762;28;20033;-75
2022/11/19 15:16:11;;;;;;;2.75;1.20;;;;;;;;;;5069378;28;20055;-77
2022/11/19 15:19:06;;;;;;;2.95;1.33;;;;;;;;;;5069850;28;20075;-77
2022/11/19 15:21:52;;;;;;;3.03;1.38;;;;;;;;;;5059561;28;20044;-73
2022/11/19 15:24:36;;;;;;;5.25;1.50;;;;;;;;;;5069743;28;20020;-73
2022/11/19 15:27:22;;;;;;;4.72;1.40;;;;;;;;;;5069086;28;20047;-73
2022/11/19 15:30:05;;;;;;;4.47;1.52;;;;;;;;;;5069681;28;20086;-73
2022/11/19 15:32:40;;;;;;;4.60;1.50;;;;;;;;;;5067933;28;20086;-73
2022/11/19 15:35:08;;;;;;;5.75;1.52;;;;;;;;;;5069548;28;20024;-72
2022/11/19 15:38:02;;;;;;;3.83;1.60;;;;;;;;;;5069042;28;20397;-72
2022/11/19 15:40:32;;;;;;;3.80;1.30;;;;;;;;;;5069461;28;20030;-72
2022/11/19 15:43:30;;;;;;;6.32;1.60;;;;;;;;;;5068875;28;20412;-72
2022/11/19 15:46:10;;;;;;;5.90;1.38;;;;;;;;;;5065737;28;20042;-72
2022/11/19 15:49:19;;;;;;;5.20;1.33;;;;;;;;;;5069587;28;20070;-72
2022/11/19 15:52:09;;;;;;;3.65;1.30;;;;;;;;;;5063130;28;20028;-72